Time;durP1;ratioP1;P1;durP2;ratioP2;P2;SDS_P1;SDS_P2;PMS_P1;PMS_P2;Temp;Humidity;BMP_temperature;BMP_pressure;BME280_temperature;BME280_humidity;BME280_pressure;Samples;Min_cycle;Max_cycle;Signal;HPM_P1;HPM_P2
2021/12/02 00:01:14;;;;;;;0.00;0.00;;;5.00;99.90;;;;;;5030743;28;20071;-69
2021/12/02 00:03:40;;;;;;;0.00;0.00;;;5.00;99.90;;;;;;5031568;28;20110;-69
2021/12/02 00:06:11;;;;;;;0.00;0.00;;;5.00;99.90;;;;;;5031923;28;20033;-69
2021/12/02 00:08:37;;;;;;;0.00;0.00;;;4.80;99.90;;;;;;5032376;28;20091;-69
2021/12/02 00:11:03;;;;;;;0.00;0.00;;;4.70;99.90;;;;;;5030966;28;20038;-69
2021/12/02 00:13:31;;;;;;;0.00;0.00;;;4.60;99.90;;;;;;5032281;28;20025;-68
2021/12/02 00:15:59;;;;;;;0.00;0.00;;;4.50;99.90;;;;;;5031852;28;20037;-69
2021/12/02 00:21:03;;;;;;;0.00;0.00;;;4.40;99.90;;;;;;5030825;28;20453;-69
2021/12/02 00:23:33;;;;;;;0.00;0.00;;;4.40;99.90;;;;;;5032398;28;20452;-69
2021/12/02 00:26:01;;;;;;;0.00;0.00;;;4.30;99.90;;;;;;5031539;28;20037;-69
2021/12/02 00:28:29;;;;;;;0.00;0.00;;;4.20;99.90;;;;;;5032213;28;20028;-69
2021/12/02 00:30:57;;;;;;;0.00;0.00;;;4.10;99.90;;;;;;5030592;28;20132;-69
2021/12/02 00:33:26;;;;;;;0.00;0.00;;;4.10;99.90;;;;;;5031661;28;20079;-69
2021/12/02 00:35:52;;;;;;;0.00;0.00;;;4.10;99.90;;;;;;5044147;28;20115;-69
2021/12/02 00:38:21;;;;;;;0.00;0.00;;;4.20;99.90;;;;;;5049528;28;20040;-69
2021/12/02 00:40:48;;;;;;;0.00;0.00;;;4.20;99.90;;;;;;5028393;28;20066;-69
2021/12/02 00:43:14;;;;;;;0.00;0.00;;;4.30;99.90;;;;;;5031835;28;20026;-69
2021/12/02 00:45:41;;;;;;;0.00;0.00;;;4.30;99.90;;;;;;5030025;28;20123;-69
2021/12/02 00:48:11;;;;;;;0.00;0.00;;;4.30;99.90;;;;;;5031164;28;20025;-69
2021/12/02 00:50:38;;;;;;;0.00;0.00;;;4.30;99.90;;;;;;5028386;28;20056;-69
2021/12/02 00:53:06;;;;;;;0.00;0.00;;;4.40;99.90;;;;;;5031726;28;20380;-69
2021/12/02 00:55:36;;;;;;;0.00;0.00;;;4.40;99.90;;;;;;5019339;28;20087;-69
2021/12/02 00:58:02;;;;;;;0.00;0.00;;;4.30;99.90;;;;;;5031662;28;20069;-69
2021/12/02 01:00:28;;;;;;;0.00;0.00;;;4.20;99.90;;;;;;5030202;28;20088;-69
2021/12/02 01:02:54;;;;;;;0.00;0.00;;;3.90;99.90;;;;;;5031382;28;20026;-69
2021/12/02 01:05:20;;;;;;;0.00;0.00;;;3.60;99.90;;;;;;5033964;28;20123;-69
2021/12/02 01:07:45;;;;;;;0.00;0.00;;;3.40;99.90;;;;;;5038042;28;20025;-69
2021/12/02 01:10:11;;;;;;;0.00;0.00;;;3.40;99.90;;;;;;5030990;28;20061;-69
2021/12/02 01:12:37;;;;;;;0.00;0.00;;;3.40;99.90;;;;;;5031066;28;20025;-69
2021/12/02 01:15:06;;;;;;;0.00;0.00;;;3.40;99.90;;;;;;5031414;28;20484;-69
2021/12/02 01:17:32;;;;;;;0.00;0.00;;;3.40;99.90;;;;;;5031586;28;20388;-69
2021/12/02 01:19:57;;;;;;;0.00;0.00;;;3.50;99.90;;;;;;5031377;28;20017;-69
2021/12/02 01:22:26;;;;;;;0.00;0.00;;;3.50;99.90;;;;;;5030961;28;20022;-69
2021/12/02 01:24:53;;;;;;;0.00;0.00;;;3.50;99.90;;;;;;5031457;28;20030;-69
2021/12/02 01:27:21;;;;;;;0.00;0.00;;;3.50;99.90;;;;;;5032271;28;20037;-69
2021/12/02 01:29:48;;;;;;;0.00;0.00;;;3.60;99.90;;;;;;5034864;28;20485;-68
2021/12/02 01:32:16;;;;;;;0.00;0.00;;;3.60;99.90;;;;;;5034066;28;20042;-69
2021/12/02 01:34:45;;;;;;;0.00;0.00;;;3.60;99.90;;;;;;5034901;28;20055;-69
2021/12/02 01:37:11;;;;;;;0.00;0.00;;;3.60;99.90;;;;;;5034506;28;20033;-69
2021/12/02 01:39:37;;;;;;;0.00;0.00;;;3.70;99.90;;;;;;5041234;28;20033;-69
2021/12/02 01:42:03;;;;;;;0.00;0.00;;;3.70;99.90;;;;;;5040599;28;20072;-69
2021/12/02 01:44:29;;;;;;;0.00;0.00;;;3.70;99.90;;;;;;5034910;28;20030;-69
2021/12/02 01:47:00;;;;;;;0.00;0.00;;;3.70;99.90;;;;;;5034832;28;20021;-69
2021/12/02 01:49:29;;;;;;;0.00;0.00;;;3.60;99.90;;;;;;5034733;28;20083;-69
2021/12/02 01:51:55;;;;;;;0.00;0.00;;;3.70;99.90;;;;;;5033987;28;20028;-69
2021/12/02 01:54:25;;;;;;;0.00;0.00;;;3.70;99.90;;;;;;5033884;28;20126;-69
2021/12/02 01:57:04;;;;;;;0.00;0.00;;;3.70;99.90;;;;;;5034232;28;20029;-69
2021/12/02 01:59:35;;;;;;;0.00;0.00;;;3.70;99.90;;;;;;5034039;28;20112;-69
2021/12/02 02:02:04;;;;;;;0.00;0.00;;;3.60;99.90;;;;;;5033879;28;20144;-69
2021/12/02 02:04:29;;;;;;;0.00;0.00;;;3.60;99.90;;;;;;5033712;28;20376;-69
2021/12/02 02:07:13;;;;;;;0.00;0.00;;;3.60;99.90;;;;;;5033776;28;20030;-69
2021/12/02 02:09:38;;;;;;;0.00;0.00;;;3.70;99.90;;;;;;5034159;28;20498;-69
2021/12/02 02:12:07;;;;;;;0.00;0.00;;;3.70;99.90;;;;;;5033669;28;20152;-69
2021/12/02 02:14:34;;;;;;;0.00;0.00;;;3.60;99.90;;;;;;5033853;28;20029;-69
2021/12/02 02:17:05;;;;;;;0.00;0.00;;;3.60;99.90;;;;;;5034013;28;20022;-69
2021/12/02 02:19:32;;;;;;;0.00;0.00;;;3.60;99.90;;;;;;5038265;28;20045;-69
2021/12/02 02:21:58;;;;;;;0.00;0.00;;;3.50;99.90;;;;;;5041629;28;20033;-69
2021/12/02 02:24:24;;;;;;;0.00;0.00;;;3.50;99.90;;;;;;5034816;28;20029;-69
2021/12/02 02:26:50;;;;;;;0.00;0.00;;;3.50;99.90;;;;;;5033811;28;20025;-69
2021/12/02 02:29:18;;;;;;;0.00;0.00;;;3.50;99.90;;;;;;5033502;28;20365;-69
2021/12/02 02:31:44;;;;;;;0.00;0.00;;;3.50;99.90;;;;;;5033017;28;20499;-69
2021/12/02 02:34:10;;;;;;;0.00;0.00;;;3.50;99.90;;;;;;5033731;28;20025;-69
2021/12/02 02:36:40;;;;;;;0.00;0.00;;;3.50;99.90;;;;;;5034973;28;20720;-69
2021/12/02 02:39:06;;;;;;;0.00;0.00;;;3.50;99.90;;;;;;5035009;28;20094;-68
2021/12/02 02:41:37;;;;;;;0.00;0.00;;;3.50;99.90;;;;;;5037327;28;20488;-68
2021/12/02 02:44:04;;;;;;;0.00;0.00;;;3.60;99.90;;;;;;5032379;28;20053;-69
2021/12/02 02:46:38;;;;;;;0.00;0.00;;;3.60;99.90;;;;;;5033898;28;20112;-69
2021/12/02 02:49:07;;;;;;;0.00;0.00;;;3.50;99.90;;;;;;5033483;28;20030;-69
2021/12/02 02:51:34;;;;;;;0.00;0.00;;;3.60;99.90;;;;;;5032883;28;20033;-69
2021/12/02 02:54:04;;;;;;;0.00;0.00;;;3.50;99.90;;;;;;5033062;28;20063;-69
2021/12/02 02:56:32;;;;;;;0.00;0.00;;;3.50;99.90;;;;;;5033599;28;20114;-69
2021/12/02 02:59:12;;;;;;;0.00;0.00;;;3.50;99.90;;;;;;5036125;28;20033;-69
2021/12/02 03:01:58;;;;;;;0.00;0.00;;;3.60;99.90;;;;;;5032831;28;20512;-68
2021/12/02 03:04:30;;;;;;;0.00;0.00;;;3.70;99.90;;;;;;5033105;28;20037;-69
2021/12/02 03:07:18;;;;;;;0.00;0.00;;;3.70;99.90;;;;;;5032861;28;20542;-69
2021/12/02 03:12:32;;;;;;;0.00;0.00;;;3.80;99.90;;;;;;5032804;28;20026;-69
2021/12/02 03:17:27;;;;;;;0.00;0.00;;;3.80;99.90;;;;;;5033035;28;20057;-69
2021/12/02 03:19:53;;;;;;;0.00;0.00;;;3.80;99.90;;;;;;5032333;28;20053;-69
2021/12/02 03:22:18;;;;;;;0.00;0.00;;;3.70;99.90;;;;;;5032545;28;20022;-69
2021/12/02 03:24:44;;;;;;;0.00;0.00;;;3.70;99.90;;;;;;5032455;28;20499;-69
2021/12/02 03:27:10;;;;;;;0.00;0.00;;;3.70;99.90;;;;;;5033002;28;20389;-69
2021/12/02 03:29:36;;;;;;;0.00;0.00;;;3.60;99.90;;;;;;5032232;28;20037;-69
2021/12/02 03:32:02;;;;;;;0.00;0.00;;;3.60;99.90;;;;;;5032158;28;20050;-69
2021/12/02 03:34:28;;;;;;;0.00;0.00;;;3.60;99.90;;;;;;5032126;28;20065;-69
2021/12/02 03:36:53;;;;;;;0.00;0.00;;;3.50;99.90;;;;;;5032825;28;20488;-69
2021/12/02 03:39:19;;;;;;;0.00;0.00;;;3.50;99.90;;;;;;5035859;28;20091;-68
2021/12/02 03:41:45;;;;;;;0.00;0.00;;;3.50;99.90;;;;;;5052006;28;20108;-68
2021/12/02 03:44:11;;;;;;;0.00;0.00;;;3.40;99.90;;;;;;5046694;28;20431;-69
2021/12/02 03:46:40;;;;;;;0.00;0.00;;;3.40;99.90;;;;;;5031840;28;20037;-69
2021/12/02 03:49:06;;;;;;;0.00;0.00;;;3.40;99.90;;;;;;5032335;28;20541;-69
2021/12/02 03:51:32;;;;;;;0.00;0.00;;;3.40;99.90;;;;;;5031623;28;20489;-69
2021/12/02 03:53:57;;;;;;;0.00;0.00;;;3.40;99.90;;;;;;5032292;28;20097;-69
2021/12/02 03:56:23;;;;;;;0.00;0.00;;;3.30;99.90;;;;;;5032415;28;20029;-69
2021/12/02 03:58:51;;;;;;;0.00;0.00;;;3.30;99.90;;;;;;5035898;28;20085;-69
2021/12/02 04:01:17;;;;;;;0.00;0.00;;;3.20;99.90;;;;;;5030946;28;20069;-69
2021/12/02 04:03:43;;;;;;;0.00;0.00;;;3.20;99.90;;;;;;5032629;28;20033;-69
2021/12/02 04:06:09;;;;;;;0.00;0.00;;;3.20;99.90;;;;;;5032143;28;20060;-69
2021/12/02 04:08:59;;;;;;;0.00;0.00;;;3.20;99.90;;;;;;5032375;28;20030;-69
2021/12/02 04:16:36;;;;;;;0.00;0.00;;;3.00;99.90;;;;;;5031627;28;20037;-69
2021/12/02 04:19:03;;;;;;;0.00;0.00;;;3.00;99.90;;;;;;5038631;28;20152;-69
2021/12/02 04:21:29;;;;;;;0.00;0.00;;;3.00;99.90;;;;;;5031038;28;20091;-69
2021/12/02 04:23:55;;;;;;;0.00;0.00;;;2.90;99.90;;;;;;5031757;28;20428;-69
2021/12/02 04:26:20;;;;;;;0.00;0.00;;;2.90;99.90;;;;;;5031784;28;20389;-69
2021/12/02 04:28:46;;;;;;;0.00;0.00;;;3.00;99.90;;;;;;5032318;28;20128;-69
2021/12/02 04:31:12;;;;;;;0.00;0.00;;;3.00;99.90;;;;;;5030914;28;20033;-69
2021/12/02 04:33:37;;;;;;;0.00;0.00;;;3.00;99.90;;;;;;5032158;28;20029;-69
2021/12/02 04:36:03;;;;;;;0.00;0.00;;;2.90;99.90;;;;;;5031715;28;20026;-69
2021/12/02 04:38:29;;;;;;;0.00;0.00;;;3.00;99.90;;;;;;5031935;28;20087;-68
2021/12/02 04:40:55;;;;;;;0.00;0.00;;;2.90;99.90;;;;;;5031217;28;20044;-69
2021/12/02 04:43:21;;;;;;;0.00;0.00;;;2.90;99.90;;;;;;5032027;28;20033;-69
2021/12/02 04:45:47;;;;;;;0.00;0.00;;;2.90;99.90;;;;;;5031865;28;20021;-69
2021/12/02 04:48:14;;;;;;;0.00;0.00;;;2.80;99.90;;;;;;5031979;28;20040;-69
2021/12/02 04:50:39;;;;;;;0.00;0.00;;;2.80;99.90;;;;;;5030788;28;20521;-69
2021/12/02 04:53:05;;;;;;;0.00;0.00;;;2.90;99.90;;;;;;5031889;28;20128;-69
2021/12/02 04:55:31;;;;;;;0.00;0.00;;;2.90;99.90;;;;;;5030029;28;20029;-69
2021/12/02 04:57:57;;;;;;;0.00;0.00;;;2.80;99.90;;;;;;5031996;28;20034;-69
2021/12/02 05:00:22;;;;;;;0.00;0.00;;;2.80;99.90;;;;;;5030204;28;20038;-69
2021/12/02 05:02:48;;;;;;;0.00;0.00;;;2.70;99.90;;;;;;5033271;28;20105;-69
2021/12/02 05:05:14;;;;;;;0.00;0.00;;;2.80;99.90;;;;;;5030035;28;20040;-69
2021/12/02 05:07:40;;;;;;;0.00;0.00;;;2.80;99.90;;;;;;5035474;28;20036;-69
2021/12/02 05:10:07;;;;;;;0.00;0.00;;;2.70;99.90;;;;;;5034498;28;20038;-69
2021/12/02 05:12:33;;;;;;;0.00;0.00;;;2.60;99.90;;;;;;5045746;28;20025;-69
2021/12/02 05:14:59;;;;;;;0.00;0.00;;;2.60;99.90;;;;;;5055406;28;20116;-69
2021/12/02 05:17:25;;;;;;;0.00;0.00;;;2.60;99.90;;;;;;5044912;28;20538;-68
2021/12/02 05:19:50;;;;;;;0.00;0.00;;;2.60;99.90;;;;;;5045185;28;20103;-69
2021/12/02 05:22:17;;;;;;;0.00;0.00;;;2.50;99.90;;;;;;5034814;28;20473;-69
2021/12/02 05:24:43;;;;;;;0.00;0.00;;;2.50;99.90;;;;;;5034767;28;20378;-69
2021/12/02 05:27:09;;;;;;;0.00;0.00;;;2.50;99.90;;;;;;5035228;28;20043;-69
2021/12/02 05:29:34;;;;;;;0.00;0.00;;;2.40;99.90;;;;;;5035077;28;20125;-69
2021/12/02 05:32:01;;;;;;;0.00;0.00;;;2.40;99.90;;;;;;5034092;28;20124;-69
2021/12/02 05:34:26;;;;;;;0.00;0.00;;;2.40;99.90;;;;;;5035346;28;20400;-69
2021/12/02 05:36:53;;;;;;;0.00;0.00;;;2.40;99.90;;;;;;5035136;28;20027;-69
2021/12/02 05:39:18;;;;;;;0.00;0.00;;;2.30;99.90;;;;;;5034524;28;20029;-69
2021/12/02 05:41:44;;;;;;;0.00;0.00;;;2.30;99.90;;;;;;5034169;28;20424;-69
2021/12/02 05:44:09;;;;;;;0.00;0.00;;;2.30;99.90;;;;;;5033660;28;20029;-69
2021/12/02 05:46:35;;;;;;;0.00;0.00;;;2.30;99.90;;;;;;5034949;28;20017;-69
2021/12/02 05:49:01;;;;;;;0.00;0.00;;;2.30;99.90;;;;;;5034411;28;20037;-68
2021/12/02 05:51:26;;;;;;;0.00;0.00;;;2.30;99.90;;;;;;5033959;28;20037;-69
2021/12/02 05:53:52;;;;;;;0.00;0.00;;;2.20;99.90;;;;;;5033664;28;20033;-69
2021/12/02 05:56:18;;;;;;;0.00;0.00;;;2.20;99.90;;;;;;5039355;28;20037;-69
2021/12/02 05:58:43;;;;;;;0.00;0.00;;;2.20;99.90;;;;;;5033718;28;20026;-69
2021/12/02 06:01:09;;;;;;;0.00;0.00;;;2.20;99.90;;;;;;5033529;28;20057;-69
2021/12/02 06:03:36;;;;;;;0.00;0.00;;;2.20;99.90;;;;;;5033762;28;20022;-69
2021/12/02 06:06:03;;;;;;;0.00;0.00;;;2.20;99.90;;;;;;5034430;28;20033;-69
2021/12/02 06:08:29;;;;;;;0.00;0.00;;;2.20;99.90;;;;;;5033287;28;20076;-69
2021/12/02 06:10:55;;;;;;;0.00;0.00;;;2.10;99.90;;;;;;5033743;28;20465;-69
2021/12/02 06:13:20;;;;;;;0.00;0.00;;;2.20;99.90;;;;;;5033834;28;20038;-69
2021/12/02 06:15:46;;;;;;;0.00;0.00;;;2.20;99.90;;;;;;5034258;28;20104;-69
2021/12/02 06:18:12;;;;;;;0.00;0.00;;;2.10;99.90;;;;;;5033750;28;20124;-69
2021/12/02 06:20:37;;;;;;;0.00;0.00;;;2.10;99.90;;;;;;5033457;28;20033;-69
2021/12/02 06:23:03;;;;;;;0.00;0.00;;;2.00;99.90;;;;;;5033851;28;20396;-68
2021/12/02 06:27:57;;;;;;;0.00;0.00;;;2.10;99.90;;;;;;5025500;28;20586;-69
2021/12/02 06:30:25;;;;;;;0.00;0.00;;;2.30;99.90;;;;;;5031641;28;20042;-68
2021/12/02 06:32:51;;;;;;;0.00;0.00;;;2.40;99.90;;;;;;5033699;28;20033;-68
2021/12/02 06:35:17;;;;;;;0.00;0.00;;;2.50;99.90;;;;;;5033810;28;20053;-69
2021/12/02 06:37:45;;;;;;;0.00;0.00;;;2.50;99.90;;;;;;5033862;28;20436;-69
2021/12/02 06:40:11;;;;;;;0.00;0.00;;;2.50;99.90;;;;;;5033341;28;20022;-69
2021/12/02 06:42:36;;;;;;;0.00;0.00;;;2.50;99.90;;;;;;5033849;28;20079;-69
2021/12/02 06:45:03;;;;;;;0.00;0.00;;;2.50;99.90;;;;;;5033494;28;20033;-68
2021/12/02 06:47:35;;;;;;;0.00;0.00;;;2.40;99.90;;;;;;5033495;28;20030;-68
2021/12/02 06:50:02;;;;;;;0.00;0.00;;;2.30;99.90;;;;;;5033061;28;20048;-69
2021/12/02 06:52:29;;;;;;;0.00;0.00;;;2.20;99.90;;;;;;5034472;28;20033;-68
2021/12/02 06:54:55;;;;;;;0.00;0.00;;;2.20;99.90;;;;;;5039197;28;20029;-68
2021/12/02 06:57:21;;;;;;;0.00;0.00;;;2.20;99.90;;;;;;5044124;28;20171;-68
2021/12/02 06:59:47;;;;;;;0.00;0.00;;;2.10;99.90;;;;;;5045968;28;20487;-68
2021/12/02 07:02:12;;;;;;;0.00;0.00;;;2.10;99.90;;;;;;5052608;28;20025;-68
2021/12/02 07:04:38;;;;;;;0.00;0.00;;;2.10;99.90;;;;;;5053015;28;20025;-68
2021/12/02 07:07:04;;;;;;;0.00;0.00;;;2.10;99.90;;;;;;5053401;28;20554;-67
2021/12/02 07:09:29;;;;;;;0.00;0.00;;;2.00;99.90;;;;;;5053193;28;20037;-68
2021/12/02 07:11:55;;;;;;;0.00;0.00;;;2.10;99.90;;;;;;5052562;28;20033;-68
2021/12/02 07:14:22;;;;;;;0.00;0.00;;;2.10;99.90;;;;;;5053115;28;20025;-67
2021/12/02 07:16:48;;;;;;;0.00;0.00;;;2.10;99.90;;;;;;5038564;28;20033;-67
2021/12/02 07:19:14;;;;;;;0.00;0.00;;;2.10;99.90;;;;;;5032858;28;20079;-67
2021/12/02 07:21:40;;;;;;;0.00;0.00;;;2.10;99.90;;;;;;5032116;28;20079;-68
2021/12/02 07:24:08;;;;;;;0.00;0.00;;;2.20;99.90;;;;;;5032807;28;20416;-68
2021/12/02 07:26:40;;;;;;;0.00;0.00;;;2.20;99.90;;;;;;5032203;28;20033;-68
2021/12/02 07:29:07;;;;;;;0.00;0.00;;;2.20;99.90;;;;;;5032532;28;20026;-68
2021/12/02 07:31:34;;;;;;;0.00;0.00;;;2.30;99.90;;;;;;5031052;28;20069;-68
2021/12/02 07:34:02;;;;;;;0.00;0.00;;;2.20;99.90;;;;;;5032333;28;20047;-67
2021/12/02 07:36:29;;;;;;;0.00;0.00;;;2.30;99.90;;;;;;5036233;28;20033;-68
2021/12/02 07:38:55;;;;;;;0.00;0.00;;;2.30;99.90;;;;;;5046741;28;20055;-68
2021/12/02 07:41:22;;;;;;;0.00;0.00;;;2.30;99.90;;;;;;5035555;28;20037;-68
2021/12/02 07:43:47;;;;;;;0.00;0.00;;;2.40;99.90;;;;;;5046211;28;20044;-68
2021/12/02 07:46:13;;;;;;;0.00;0.00;;;2.40;99.90;;;;;;5031823;28;20055;-68
2021/12/02 07:48:39;;;;;;;0.00;0.00;;;2.50;99.90;;;;;;5032632;28;20029;-68
2021/12/02 07:51:10;;;;;;;0.00;0.00;;;2.50;99.90;;;;;;5051345;28;20112;-68
2021/12/02 07:53:39;;;;;;;0.00;0.00;;;2.60;99.90;;;;;;5051823;28;20613;-67
2021/12/02 07:56:09;;;;;;;0.00;0.00;;;2.70;99.90;;;;;;5052002;28;20021;-68
2021/12/02 07:58:38;;;;;;;0.00;0.00;;;2.70;99.90;;;;;;5039913;28;20021;-68
2021/12/02 08:01:04;;;;;;;0.00;0.00;;;2.70;99.90;;;;;;5043458;28;20041;-68
2021/12/02 08:03:30;;;;;;;0.00;0.00;;;2.70;99.90;;;;;;5036129;28;20072;-68
2021/12/02 08:05:56;;;;;;;0.00;0.00;;;2.80;99.90;;;;;;5031754;28;20030;-68
2021/12/02 08:08:22;;;;;;;0.00;0.00;;;2.80;99.90;;;;;;5031545;28;20515;-68
2021/12/02 08:10:47;;;;;;;0.00;0.00;;;2.90;99.90;;;;;;5031102;28;20072;-68
2021/12/02 08:13:14;;;;;;;0.00;0.00;;;3.00;99.90;;;;;;5031638;28;20112;-68
2021/12/02 08:15:41;;;;;;;0.00;0.00;;;3.00;99.90;;;;;;5031044;28;20696;-68
2021/12/02 08:18:06;;;;;;;0.00;0.00;;;3.00;99.90;;;;;;5031336;28;20648;-68
2021/12/02 08:20:33;;;;;;;0.00;0.00;;;3.00;99.90;;;;;;5030151;28;20048;-68
2021/12/02 08:22:59;;;;;;;0.00;0.00;;;3.00;99.90;;;;;;5031837;28;20041;-68
2021/12/02 08:25:29;;;;;;;0.00;0.00;;;3.00;99.90;;;;;;5032328;28;20384;-68
2021/12/02 08:27:56;;;;;;;0.00;0.00;;;3.00;99.90;;;;;;5031822;28;20025;-68
2021/12/02 08:30:25;;;;;;;0.00;0.00;;;3.00;99.90;;;;;;5031265;28;20041;-67
2021/12/02 08:32:51;;;;;;;0.00;0.00;;;3.00;99.90;;;;;;5031649;28;20116;-67
2021/12/02 08:35:18;;;;;;;0.00;0.00;;;3.00;99.90;;;;;;5039376;28;20128;-68
2021/12/02 08:37:45;;;;;;;0.00;0.00;;;3.10;99.90;;;;;;5037574;28;20041;-68
2021/12/02 08:40:17;;;;;;;0.00;0.00;;;3.20;99.90;;;;;;5055384;28;20384;-68
2021/12/02 08:42:44;;;;;;;0.00;0.00;;;3.30;99.90;;;;;;5054743;28;20044;-68
2021/12/02 08:45:10;;;;;;;0.00;0.00;;;3.30;99.90;;;;;;5055160;28;20029;-67
2021/12/02 08:47:43;;;;;;;0.00;0.00;;;3.40;99.90;;;;;;5036019;28;20438;-68
2021/12/02 08:50:10;;;;;;;0.00;0.00;;;3.40;99.90;;;;;;5035314;28;20120;-68
2021/12/02 08:52:36;;;;;;;0.00;0.00;;;3.40;99.90;;;;;;5034496;28;20029;-68
2021/12/02 08:55:02;;;;;;;0.00;0.00;;;3.50;99.90;;;;;;5035549;28;20026;-68
2021/12/02 08:57:27;;;;;;;0.00;0.00;;;3.50;99.90;;;;;;5035784;28;20072;-68
2021/12/02 08:59:53;;;;;;;0.00;0.00;;;3.50;99.90;;;;;;5052241;28;20125;-68
2021/12/02 09:02:19;;;;;;;0.00;0.00;;;3.50;99.90;;;;;;5054966;28;20025;-68
2021/12/02 09:04:44;;;;;;;0.00;0.00;;;3.50;99.90;;;;;;5055653;28;20055;-67
2021/12/02 09:07:10;;;;;;;0.00;0.00;;;3.50;99.90;;;;;;5055409;28;20418;-68
2021/12/02 09:09:36;;;;;;;0.00;0.00;;;3.60;99.90;;;;;;5046715;28;20034;-68
2021/12/02 09:12:03;;;;;;;0.00;0.00;;;3.60;99.90;;;;;;5038806;28;20036;-67
2021/12/02 09:14:28;;;;;;;0.00;0.00;;;3.50;99.90;;;;;;5043291;28;20473;-68
2021/12/02 09:16:54;;;;;;;0.00;0.00;;;3.50;99.90;;;;;;5040529;28;20033;-68
2021/12/02 09:19:20;;;;;;;0.00;0.00;;;3.60;99.90;;;;;;5052410;28;20048;-68
2021/12/02 09:21:47;;;;;;;0.00;0.00;;;3.60;99.90;;;;;;5034502;28;20084;-68
2021/12/02 09:24:18;;;;;;;0.00;0.00;;;3.60;99.90;;;;;;5034943;28;20038;-68
2021/12/02 09:26:44;;;;;;;0.00;0.00;;;3.70;99.90;;;;;;5035112;28;20082;-68
2021/12/02 09:29:09;;;;;;;0.00;0.00;;;3.70;99.90;;;;;;5035084;28;20056;-68
2021/12/02 09:31:35;;;;;;;0.00;0.00;;;3.70;99.90;;;;;;5034495;28;20073;-68
2021/12/02 09:34:01;;;;;;;0.00;0.00;;;3.70;99.90;;;;;;5035176;28;20026;-68
2021/12/02 09:36:27;;;;;;;0.00;0.00;;;3.70;99.90;;;;;;5047100;28;20419;-68
2021/12/02 09:38:52;;;;;;;0.00;0.00;;;3.60;99.90;;;;;;5030884;28;20091;-68
2021/12/02 09:41:18;;;;;;;0.00;0.00;;;3.50;99.90;;;;;;5034019;28;20033;-68
2021/12/02 09:43:43;;;;;;;0.00;0.00;;;3.50;99.90;;;;;;5031604;28;20029;-68
2021/12/02 09:46:10;;;;;;;0.00;0.00;;;3.70;99.90;;;;;;5042549;28;20514;-69
2021/12/02 09:48:36;;;;;;;0.00;0.00;;;3.90;99.90;;;;;;5054272;28;20108;-69
2021/12/02 09:51:11;;;;;;;0.00;0.00;;;4.10;99.90;;;;;;5053871;28;20036;-68
2021/12/02 09:53:50;;;;;;;0.00;0.00;;;4.30;99.90;;;;;;5054942;28;20504;-69
2021/12/02 09:56:18;;;;;;;0.00;0.00;;;4.50;99.90;;;;;;5054796;28;20391;-68
2021/12/02 09:58:43;;;;;;;0.00;0.00;;;4.70;99.90;;;;;;5051508;28;20036;-68
2021/12/02 10:01:13;;;;;;;0.00;0.00;;;4.80;99.90;;;;;;5046469;28;20030;-68
2021/12/02 10:03:46;;;;;;;0.00;0.00;;;5.00;99.90;;;;;;5036468;28;20033;-69
2021/12/02 10:06:17;;;;;;;0.00;0.00;;;5.00;99.90;;;;;;5034781;28;20435;-69
2021/12/02 10:08:55;;;;;;;0.00;0.00;;;5.10;99.90;;;;;;5034442;28;20032;-68
2021/12/02 10:11:48;;;;;;;0.00;0.00;;;5.00;99.90;;;;;;5033444;28;20044;-69
2021/12/02 10:14:28;;;;;;;0.00;0.00;;;5.00;99.90;;;;;;5034201;28;20426;-69
2021/12/02 10:17:21;;;;;;;0.00;0.00;;;5.10;99.90;;;;;;5034423;28;20485;-69
2021/12/02 10:23:09;;;;;;;0.00;0.00;;;5.00;99.90;;;;;;5035759;28;20048;-69
2021/12/02 10:25:36;;;;;;;0.00;0.00;;;4.90;99.90;;;;;;5041902;28;20052;-68
2021/12/02 10:28:10;;;;;;;0.00;0.00;;;4.90;99.90;;;;;;5034001;28;20388;-68
2021/12/02 10:30:42;;;;;;;0.00;0.00;;;4.90;99.90;;;;;;5033183;28;20161;-69
2021/12/02 10:33:09;;;;;;;0.00;0.00;;;4.80;99.90;;;;;;5046630;28;20096;-68
2021/12/02 10:35:45;;;;;;;0.00;0.00;;;4.90;99.90;;;;;;5038917;28;20108;-69
2021/12/02 10:38:34;;;;;;;0.00;0.00;;;4.90;99.90;;;;;;5021176;28;20037;-68
2021/12/02 10:41:12;;;;;;;0.00;0.00;;;4.80;99.90;;;;;;5032404;28;20059;-69
2021/12/02 10:44:14;;;;;;;0.00;0.00;;;4.90;99.90;;;;;;5033880;28;20029;-69
2021/12/02 10:46:52;;;;;;;0.00;0.00;;;5.10;99.90;;;;;;5033880;28;20099;-69
2021/12/02 10:49:19;;;;;;;0.00;0.00;;;5.10;99.90;;;;;;5040125;28;20435;-69
2021/12/02 10:51:52;;;;;;;0.00;0.00;;;5.10;99.90;;;;;;5031435;28;20104;-69
2021/12/02 10:54:19;;;;;;;0.00;0.00;;;5.00;99.90;;;;;;5032788;28;20049;-69
2021/12/02 10:56:54;;;;;;;0.00;0.00;;;5.00;99.90;;;;;;5033065;28;20040;-69
2021/12/02 10:59:49;;;;;;;0.00;0.00;;;4.90;99.90;;;;;;5032648;28;20034;-68
2021/12/02 11:02:26;;;;;;;0.00;0.00;;;4.70;99.90;;;;;;5041995;28;20046;-69
2021/12/02 11:04:59;;;;;;;0.00;0.00;;;4.60;99.90;;;;;;5033214;28;20030;-69
2021/12/02 11:07:33;;;;;;;0.00;0.00;;;4.60;99.90;;;;;;5032730;28;20553;-68
2021/12/02 11:10:06;;;;;;;0.00;0.00;;;4.60;99.90;;;;;;5029352;28;20095;-68
2021/12/02 11:12:38;;;;;;;0.00;0.00;;;4.40;99.90;;;;;;5032208;28;20026;-69
2021/12/02 11:15:14;;;;;;;0.00;0.00;;;4.30;99.90;;;;;;5033051;28;20356;-69
2021/12/02 11:17:44;;;;;;;0.00;0.00;;;4.30;99.90;;;;;;5032031;28;20120;-69
2021/12/02 11:20:33;;;;;;;0.00;0.00;;;4.20;99.90;;;;;;5031975;28;20416;-69
2021/12/02 11:23:07;;;;;;;0.00;0.00;;;4.10;99.90;;;;;;5032432;28;20032;-69
2021/12/02 11:25:39;;;;;;;0.00;0.00;;;4.10;99.90;;;;;;5032290;28;20041;-69
2021/12/02 11:28:09;;;;;;;0.00;0.00;;;4.10;99.90;;;;;;5030872;28;20083;-69
2021/12/02 11:30:38;;;;;;;0.00;0.00;;;4.10;99.90;;;;;;5024226;28;20045;-68
2021/12/02 11:33:05;;;;;;;0.00;0.00;;;4.20;99.90;;;;;;5032143;28;20041;-69
2021/12/02 11:35:40;;;;;;;0.00;0.00;;;4.40;99.90;;;;;;5032482;28;20026;-69
2021/12/02 11:38:18;;;;;;;0.00;0.00;;;4.50;99.90;;;;;;5034924;28;20037;-69
2021/12/02 11:40:47;;;;;;;0.00;0.00;;;4.70;99.90;;;;;;5030880;28;20439;-69
2021/12/02 11:43:18;;;;;;;0.00;0.00;;;4.80;99.90;;;;;;5032135;28;20084;-69
2021/12/02 11:45:48;;;;;;;0.00;0.00;;;5.00;99.90;;;;;;5030059;28;20040;-68
2021/12/02 11:48:20;;;;;;;0.00;0.00;;;5.10;99.90;;;;;;5030332;28;20498;-68
2021/12/02 11:50:47;;;;;;;0.00;0.00;;;5.20;99.90;;;;;;5028613;28;20116;-69
2021/12/02 11:53:14;;;;;;;0.00;0.00;;;5.30;99.90;;;;;;5027552;28;20108;-69
2021/12/02 11:55:42;;;;;;;0.00;0.00;;;5.40;99.90;;;;;;5029368;28;20026;-69
2021/12/02 11:58:08;;;;;;;0.00;0.00;;;5.40;99.90;;;;;;5046314;28;20025;-69
2021/12/02 12:00:36;;;;;;;0.00;0.00;;;5.40;99.90;;;;;;5031166;28;20041;-69
2021/12/02 12:03:07;;;;;;;0.00;0.00;;;5.20;99.90;;;;;;5031663;28;20048;-69
2021/12/02 12:05:38;;;;;;;0.00;0.00;;;5.00;99.90;;;;;;5030553;28;20512;-69
2021/12/02 12:08:04;;;;;;;0.00;0.00;;;4.90;99.90;;;;;;5031490;28;20431;-69
2021/12/02 12:10:39;;;;;;;0.00;0.00;;;4.80;99.90;;;;;;5030365;28;20068;-69
2021/12/02 12:13:21;;;;;;;0.00;0.00;;;4.70;99.90;;;;;;5030417;28;20097;-69
2021/12/02 12:15:53;;;;;;;0.00;0.00;;;4.70;99.90;;;;;;5030852;28;20029;-69
2021/12/02 12:18:36;;;;;;;0.00;0.00;;;4.60;99.90;;;;;;5031300;28;20096;-69
2021/12/02 12:21:13;;;;;;;0.00;0.00;;;4.60;99.90;;;;;;5030429;28;20037;-69
2021/12/02 12:23:44;;;;;;;0.00;0.00;;;4.60;99.90;;;;;;5030860;28;20108;-68
2021/12/02 12:26:31;;;;;;;0.00;0.00;;;4.50;99.90;;;;;;5031377;28;20033;-69
2021/12/02 12:34:28;;;;;;;0.00;0.00;;;4.50;99.90;;;;;;5034053;28;20068;-68
2021/12/02 12:36:54;;;;;;;0.00;0.00;;;4.40;99.90;;;;;;5040031;28;20460;-69
2021/12/02 12:39:23;;;;;;;0.00;0.00;;;4.40;99.90;;;;;;5033464;28;20029;-68
2021/12/02 12:42:16;;;;;;;0.00;0.00;;;4.40;99.90;;;;;;5031262;28;20447;-68
2021/12/02 12:44:58;;;;;;;0.00;0.00;;;4.30;99.90;;;;;;5031853;28;20021;-68
2021/12/02 12:47:46;;;;;;;0.00;0.00;;;4.10;99.90;;;;;;5036616;28;20069;-68
2021/12/02 12:50:33;;;;;;;0.00;0.00;;;4.00;99.90;;;;;;5036975;28;20033;-69
2021/12/02 12:53:05;;;;;;;0.00;0.00;;;3.90;99.90;;;;;;5032160;28;20033;-68
2021/12/02 12:55:32;;;;;;;0.00;0.00;;;3.80;99.90;;;;;;5031740;28;20026;-69
2021/12/02 12:58:16;;;;;;;0.00;0.00;;;3.70;99.90;;;;;;5038456;28;20029;-68
2021/12/02 13:00:48;;;;;;;0.00;0.00;;;3.60;99.90;;;;;;5022427;28;20042;-68
2021/12/02 13:03:20;;;;;;;0.00;0.00;;;3.50;99.90;;;;;;5031638;28;20034;-68
2021/12/02 13:05:53;;;;;;;0.00;0.00;;;3.50;99.90;;;;;;5033902;28;20033;-68
2021/12/02 13:08:21;;;;;;;0.00;0.00;;;3.40;99.90;;;;;;5031579;28;20053;-68
2021/12/02 13:10:56;;;;;;;0.00;0.00;;;3.40;99.90;;;;;;5030844;28;20033;-68
2021/12/02 13:13:27;;;;;;;0.00;0.00;;;3.30;99.90;;;;;;5031499;28;20105;-68
2021/12/02 13:16:14;;;;;;;0.00;0.00;;;3.30;99.90;;;;;;5031845;28;20034;-68
2021/12/02 13:18:42;;;;;;;0.00;0.00;;;3.30;99.90;;;;;;5031797;28;20396;-68
2021/12/02 13:21:45;;;;;;;0.00;0.00;;;3.20;99.90;;;;;;5030781;28;20045;-68
2021/12/02 13:24:19;;;;;;;0.00;0.00;;;3.10;99.90;;;;;;5033621;28;20041;-68
2021/12/02 13:26:53;;;;;;;0.00;0.00;;;3.00;99.90;;;;;;5033309;28;20366;-68
2021/12/02 13:29:25;;;;;;;0.00;0.00;;;3.00;99.90;;;;;;5035278;28;20036;-68
2021/12/02 13:31:54;;;;;;;0.00;0.00;;;2.90;99.90;;;;;;5034581;28;20041;-68